sensor_id;sensor_type;location;lat;lon;timestamp;pressure;altitude;pressure_sealevel;temperature;humidity
8101;BME280;4093;53.470;9.832;2023-04-21T00:00:42;101979.00;;;10.36;86.90
8101;BME280;4093;53.470;9.832;2023-04-21T00:03:10;101983.03;;;9.80;87.86
8101;BME280;4093;53.470;9.832;2023-04-21T00:05:38;101980.72;;;10.29;86.51
8101;BME280;4093;53.470;9.832;2023-04-21T00:08:08;101975.41;;;10.00;87.44
8101;BME280;4093;53.470;9.832;2023-04-21T00:10:35;101977.94;;;9.95;87.33
8101;BME280;4093;53.470;9.832;2023-04-21T00:13:03;101943.22;;;9.49;87.67
8101;BME280;4093;53.470;9.832;2023-04-21T00:15:31;101977.00;;;9.80;88.61
8101;BME280;4093;53.470;9.832;2023-04-21T00:18:00;101978.91;;;10.13;87.26
8101;BME280;4093;53.470;9.832;2023-04-21T00:20:29;101968.50;;;9.99;86.74
8101;BME280;4093;53.470;9.832;2023-04-21T00:22:58;101972.09;;;10.33;85.77
8101;BME280;4093;53.470;9.832;2023-04-21T00:25:26;101954.88;;;10.37;84.60
8101;BME280;4093;53.470;9.832;2023-04-21T00:27:53;101967.56;;;9.89;87.47
8101;BME280;4093;53.470;9.832;2023-04-21T00:30:21;101963.31;;;9.96;87.28
8101;BME280;4093;53.470;9.832;2023-04-21T00:32:49;101958.72;;;9.49;88.59
8101;BME280;4093;53.470;9.832;2023-04-21T00:35:18;101958.94;;;9.86;88.60
8101;BME280;4093;53.470;9.832;2023-04-21T00:37:46;101961.69;;;10.19;86.84
8101;BME280;4093;53.470;9.832;2023-04-21T00:40:15;101959.03;;;10.03;86.86
8101;BME280;4093;53.470;9.832;2023-04-21T00:42:43;101964.44;;;10.67;84.50
8101;BME280;4093;53.470;9.832;2023-04-21T00:45:10;101961.91;;;10.92;82.73
8101;BME280;4093;53.470;9.832;2023-04-21T00:47:40;101901.47;;;10.31;83.29
8101;BME280;4093;53.470;9.832;2023-04-21T00:50:09;101959.91;;;10.08;85.85
8101;BME280;4093;53.470;9.832;2023-04-21T00:52:40;101960.78;;;10.04;86.02
8101;BME280;4093;53.470;9.832;2023-04-21T00:55:09;101958.38;;;10.54;84.35
8101;BME280;4093;53.470;9.832;2023-04-21T00:57:37;101959.22;;;10.49;84.92
8101;BME280;4093;53.470;9.832;2023-04-21T01:00:05;101940.13;;;10.07;85.99
8101;BME280;4093;53.470;9.832;2023-04-21T01:02:37;101948.69;;;10.03;86.55
8101;BME280;4093;53.470;9.832;2023-04-21T01:05:06;101943.47;;;9.84;86.95
8101;BME280;4093;53.470;9.832;2023-04-21T01:07:34;101947.00;;;10.08;86.86
8101;BME280;4093;53.470;9.832;2023-04-21T01:10:04;101894.97;;;9.34;88.11
8101;BME280;4093;53.470;9.832;2023-04-21T01:12:32;101944.91;;;9.42;88.13
8101;BME280;4093;53.470;9.832;2023-04-21T01:15:00;101946.88;;;9.83;88.16
8101;BME280;4093;53.470;9.832;2023-04-21T01:17:28;101939.91;;;9.67;88.08
8101;BME280;4093;53.470;9.832;2023-04-21T01:19:59;101950.28;;;9.73;88.36
8101;BME280;4093;53.470;9.832;2023-04-21T01:22:30;101948.50;;;9.64;88.76
8101;BME280;4093;53.470;9.832;2023-04-21T01:24:58;101940.94;;;9.96;86.96
8101;BME280;4093;53.470;9.832;2023-04-21T01:27:26;101940.13;;;10.13;86.14
8101;BME280;4093;53.470;9.832;2023-04-21T01:29:53;101937.41;;;9.84;87.24
8101;BME280;4093;53.470;9.832;2023-04-21T01:32:24;101943.66;;;10.27;85.13
8101;BME280;4093;53.470;9.832;2023-04-21T01:34:53;101935.38;;;9.32;90.19
8101;BME280;4093;53.470;9.832;2023-04-21T01:37:23;101931.38;;;9.80;87.32
8101;BME280;4093;53.470;9.832;2023-04-21T01:39:54;101935.47;;;9.44;88.37
8101;BME280;4093;53.470;9.832;2023-04-21T01:42:24;101936.63;;;9.99;87.71
8101;BME280;4093;53.470;9.832;2023-04-21T01:44:52;101937.50;;;10.01;86.10
8101;BME280;4093;53.470;9.832;2023-04-21T01:47:21;101937.38;;;9.76;87.86
8101;BME280;4093;53.470;9.832;2023-04-21T01:49:49;101923.56;;;9.71;87.39
8101;BME280;4093;53.470;9.832;2023-04-21T01:52:16;101929.56;;;9.64;88.72
8101;BME280;4093;53.470;9.832;2023-04-21T01:54:44;101931.31;;;9.71;87.77
8101;BME280;4093;53.470;9.832;2023-04-21T01:57:13;101925.63;;;8.91;90.61
8101;BME280;4093;53.470;9.832;2023-04-21T01:59:42;101927.66;;;9.35;89.98
8101;BME280;4093;53.470;9.832;2023-04-21T02:02:09;101922.47;;;9.27;89.84
8101;BME280;4093;53.470;9.832;2023-04-21T02:04:37;101914.69;;;9.26;89.59
8101;BME280;4093;53.470;9.832;2023-04-21T02:07:05;101915.44;;;9.10;90.03
8101;BME280;4093;53.470;9.832;2023-04-21T02:09:33;101919.97;;;9.43;89.06
8101;BME280;4093;53.470;9.832;2023-04-21T02:12:01;101921.81;;;9.64;89.05
8101;BME280;4093;53.470;9.832;2023-04-21T02:14:30;101926.47;;;10.41;84.88
8101;BME280;4093;53.470;9.832;2023-04-21T02:16:58;101929.97;;;10.63;83.80
8101;BME280;4093;53.470;9.832;2023-04-21T02:19:25;101856.25;;;9.34;86.18
8101;BME280;4093;53.470;9.832;2023-04-21T02:21:53;101910.84;;;10.09;85.50
8101;BME280;4093;53.470;9.832;2023-04-21T02:24:21;101916.13;;;10.35;85.29
8101;BME280;4093;53.470;9.832;2023-04-21T02:26:48;101919.31;;;9.76;87.03
8101;BME280;4093;53.470;9.832;2023-04-21T02:29:16;101911.34;;;9.38;88.58
8101;BME280;4093;53.470;9.832;2023-04-21T02:31:46;101907.13;;;9.54;88.30
8101;BME280;4093;53.470;9.832;2023-04-21T02:34:30;101909.13;;;10.13;85.74
8101;BME280;4093;53.470;9.832;2023-04-21T02:36:58;101903.69;;;9.53;87.35
8101;BME280;4093;53.470;9.832;2023-04-21T02:39:26;101916.75;;;9.85;86.81
8101;BME280;4093;53.470;9.832;2023-04-21T02:41:53;101910.72;;;9.86;86.68
8101;BME280;4093;53.470;9.832;2023-04-21T02:44:21;101912.41;;;9.75;87.51
8101;BME280;4093;53.470;9.832;2023-04-21T02:46:50;101918.63;;;10.18;85.98
8101;BME280;4093;53.470;9.832;2023-04-21T02:49:18;101910.78;;;9.99;85.73
8101;BME280;4093;53.470;9.832;2023-04-21T02:51:46;101906.41;;;9.75;87.08
8101;BME280;4093;53.470;9.832;2023-04-21T02:54:14;101911.38;;;9.41;88.78
8101;BME280;4093;53.470;9.832;2023-04-21T02:56:41;101917.50;;;9.60;88.32
8101;BME280;4093;53.470;9.832;2023-04-21T02:59:09;101910.72;;;9.79;86.70
8101;BME280;4093;53.470;9.832;2023-04-21T03:01:37;101865.06;;;9.71;86.74
8101;BME280;4093;53.470;9.832;2023-04-21T03:04:06;101926.19;;;9.80;87.96
8101;BME280;4093;53.470;9.832;2023-04-21T03:06:33;101910.41;;;9.25;89.68
8101;BME280;4093;53.470;9.832;2023-04-21T03:09:03;101917.50;;;9.60;88.20
8101;BME280;4093;53.470;9.832;2023-04-21T03:11:31;101915.09;;;9.93;86.34
8101;BME280;4093;53.470;9.832;2023-04-21T03:13:58;101907.28;;;9.78;86.34
8101;BME280;4093;53.470;9.832;2023-04-21T03:16:26;101913.69;;;9.04;90.04
8101;BME280;4093;53.470;9.832;2023-04-21T03:18:55;101913.88;;;9.33;88.98
8101;BME280;4093;53.470;9.832;2023-04-21T03:21:23;101915.72;;;9.53;88.46
8101;BME280;4093;53.470;9.832;2023-04-21T03:23:51;101915.84;;;9.74;87.87
8101;BME280;4093;53.470;9.832;2023-04-21T03:26:19;101899.53;;;9.86;86.68
8101;BME280;4093;53.470;9.832;2023-04-21T03:28:47;101901.09;;;9.55;88.02
8101;BME280;4093;53.470;9.832;2023-04-21T03:31:14;101905.28;;;9.31;89.49
8101;BME280;4093;53.470;9.832;2023-04-21T03:33:42;101900.25;;;9.54;87.72
8101;BME280;4093;53.470;9.832;2023-04-21T03:36:10;101906.47;;;9.96;86.79
8101;BME280;4093;53.470;9.832;2023-04-21T03:38:39;101895.16;;;9.71;86.90
8101;BME280;4093;53.470;9.832;2023-04-21T03:41:06;101887.50;;;9.85;85.87
8101;BME280;4093;53.470;9.832;2023-04-21T03:43:34;101893.28;;;9.39;88.03
8101;BME280;4093;53.470;9.832;2023-04-21T03:46:02;101892.38;;;9.31;88.26
8101;BME280;4093;53.470;9.832;2023-04-21T03:48:30;101890.63;;;9.25;88.17
8101;BME280;4093;53.470;9.832;2023-04-21T03:50:57;101891.81;;;9.87;87.00
8101;BME280;4093;53.470;9.832;2023-04-21T03:53:25;101895.13;;;9.65;87.40
8101;BME280;4093;53.470;9.832;2023-04-21T03:55:54;101895.91;;;9.47;87.35
8101;BME280;4093;53.470;9.832;2023-04-21T03:58:22;101903.03;;;9.99;85.78
8101;BME280;4093;53.470;9.832;2023-04-21T04:00:50;101895.19;;;9.76;85.71
8101;BME280;4093;53.470;9.832;2023-04-21T04:03:17;101895.25;;;9.92;85.91
8101;BME280;4093;53.470;9.832;2023-04-21T04:05:48;101893.19;;;9.27;88.35
8101;BME280;4093;53.470;9.832;2023-04-21T04:08:16;101898.69;;;9.85;85.77
8101;BME280;4093;53.470;9.832;2023-04-21T04:10:44;101900.41;;;9.88;84.95
8101;BME280;4093;53.470;9.832;2023-04-21T04:13:13;101899.50;;;9.80;85.79
8101;BME280;4093;53.470;9.832;2023-04-21T04:15:41;101892.72;;;10.03;83.71
8101;BME280;4093;53.470;9.832;2023-04-21T04:18:08;101898.78;;;10.14;84.18
8101;BME280;4093;53.470;9.832;2023-04-21T04:20:36;101888.13;;;9.41;86.83
8101;BME280;4093;53.470;9.832;2023-04-21T04:23:04;101897.44;;;9.20;88.20
8101;BME280;4093;53.470;9.832;2023-04-21T04:25:31;101902.03;;;9.63;86.78
8101;BME280;4093;53.470;9.832;2023-04-21T04:27:59;101902.81;;;9.49;87.00
8101;BME280;4093;53.470;9.832;2023-04-21T04:30:28;101892.56;;;9.66;85.61
8101;BME280;4093;53.470;9.832;2023-04-21T04:32:58;101884.72;;;9.46;87.43
8101;BME280;4093;53.470;9.832;2023-04-21T04:35:26;101889.75;;;9.26;87.66
8101;BME280;4093;53.470;9.832;2023-04-21T04:37:53;101892.41;;;9.34;87.53
8101;BME280;4093;53.470;9.832;2023-04-21T04:40:22;101881.34;;;9.61;85.66
8101;BME280;4093;53.470;9.832;2023-04-21T04:42:50;101891.72;;;9.70;86.50
8101;BME280;4093;53.470;9.832;2023-04-21T04:45:18;101887.44;;;9.80;84.99
8101;BME280;4093;53.470;9.832;2023-04-21T04:47:49;101892.69;;;9.94;84.62
8101;BME280;4093;53.470;9.832;2023-04-21T04:50:17;101885.81;;;9.98;84.86
8101;BME280;4093;53.470;9.832;2023-04-21T04:52:44;101878.72;;;9.52;87.05
8101;BME280;4093;53.470;9.832;2023-04-21T04:55:14;101890.13;;;10.05;84.83
8101;BME280;4093;53.470;9.832;2023-04-21T04:57:42;101871.81;;;9.45;85.94
8101;BME280;4093;53.470;9.832;2023-04-21T05:00:10;101900.44;;;9.99;85.90
8101;BME280;4093;53.470;9.832;2023-04-21T05:02:38;101897.13;;;10.27;84.01
8101;BME280;4093;53.470;9.832;2023-04-21T05:05:07;101900.59;;;10.29;83.83
8101;BME280;4093;53.470;9.832;2023-04-21T05:07:35;101898.91;;;11.05;81.69
8101;BME280;4093;53.470;9.832;2023-04-21T05:10:04;101890.22;;;11.43;78.09
8101;BME280;4093;53.470;9.832;2023-04-21T05:12:31;101898.69;;;13.25;73.13
8101;BME280;4093;53.470;9.832;2023-04-21T05:14:59;101885.81;;;13.11;71.81
8101;BME280;4093;53.470;9.832;2023-04-21T05:17:27;101881.81;;;13.65;70.49
8101;BME280;4093;53.470;9.832;2023-04-21T05:19:56;101884.06;;;13.93;69.83
8101;BME280;4093;53.470;9.832;2023-04-21T05:22:25;101869.16;;;12.30;73.75
8101;BME280;4093;53.470;9.832;2023-04-21T05:24:53;101879.56;;;14.06;69.14
8101;BME280;4093;53.470;9.832;2023-04-21T05:27:21;101878.00;;;13.12;71.63
8101;BME280;4093;53.470;9.832;2023-04-21T05:29:48;101868.91;;;14.26;67.50
8101;BME280;4093;53.470;9.832;2023-04-21T05:32:16;101863.41;;;13.81;68.38
8101;BME280;4093;53.470;9.832;2023-04-21T05:34:44;101868.72;;;14.37;68.27
8101;BME280;4093;53.470;9.832;2023-04-21T05:37:13;101856.63;;;14.34;67.19
8101;BME280;4093;53.470;9.832;2023-04-21T05:39:42;101863.22;;;13.98;70.91
8101;BME280;4093;53.470;9.832;2023-04-21T05:42:10;101860.81;;;13.02;70.94
8101;BME280;4093;53.470;9.832;2023-04-21T05:44:38;101859.38;;;13.58;69.68
8101;BME280;4093;53.470;9.832;2023-04-21T05:47:06;101862.81;;;14.83;67.59
8101;BME280;4093;53.470;9.832;2023-04-21T05:49:33;101853.97;;;14.93;65.68
8101;BME280;4093;53.470;9.832;2023-04-21T05:52:01;101846.41;;;13.55;69.13
8101;BME280;4093;53.470;9.832;2023-04-21T05:54:29;101851.97;;;14.57;67.65
8101;BME280;4093;53.470;9.832;2023-04-21T05:56:59;101844.59;;;14.81;66.33
8101;BME280;4093;53.470;9.832;2023-04-21T05:59:26;101841.66;;;13.88;68.56
8101;BME280;4093;53.470;9.832;2023-04-21T06:01:54;101843.00;;;15.22;65.00
8101;BME280;4093;53.470;9.832;2023-04-21T06:04:22;101848.34;;;17.10;59.04
8101;BME280;4093;53.470;9.832;2023-04-21T06:06:50;101841.50;;;16.70;59.34
8101;BME280;4093;53.470;9.832;2023-04-21T06:09:18;101840.00;;;15.85;61.42
8101;BME280;4093;53.470;9.832;2023-04-21T06:11:45;101838.88;;;16.70;59.85
8101;BME280;4093;53.470;9.832;2023-04-21T06:14:15;101839.81;;;15.94;61.62
8101;BME280;4093;53.470;9.832;2023-04-21T06:16:43;101836.06;;;16.43;60.75
8101;BME280;4093;53.470;9.832;2023-04-21T06:19:11;101836.28;;;15.97;62.18
8101;BME280;4093;53.470;9.832;2023-04-21T06:21:38;101831.56;;;16.50;59.80
8101;BME280;4093;53.470;9.832;2023-04-21T06:24:06;101839.94;;;18.73;54.60
8101;BME280;4093;53.470;9.832;2023-04-21T06:26:34;101825.31;;;16.92;58.15
8101;BME280;4093;53.470;9.832;2023-04-21T06:29:02;101829.69;;;17.53;57.08
8101;BME280;4093;53.470;9.832;2023-04-21T06:31:31;101811.47;;;17.21;57.35
8101;BME280;4093;53.470;9.832;2023-04-21T06:33:59;101812.03;;;16.65;58.55
8101;BME280;4093;53.470;9.832;2023-04-21T06:36:26;101813.13;;;17.84;56.00
8101;BME280;4093;53.470;9.832;2023-04-21T06:38:54;101812.69;;;16.73;58.30
8101;BME280;4093;53.470;9.832;2023-04-21T06:41:22;101798.06;;;15.94;60.70
8101;BME280;4093;53.470;9.832;2023-04-21T06:43:50;101811.72;;;17.43;58.90
8101;BME280;4093;53.470;9.832;2023-04-21T06:46:18;101815.78;;;16.19;61.18
8101;BME280;4093;53.470;9.832;2023-04-21T06:48:47;101807.34;;;17.12;59.40
8101;BME280;4093;53.470;9.832;2023-04-21T06:51:15;101802.97;;;18.56;55.60
8101;BME280;4093;53.470;9.832;2023-04-21T06:53:43;101799.66;;;18.78;54.07
8101;BME280;4093;53.470;9.832;2023-04-21T06:56:10;101797.56;;;17.50;57.02
8101;BME280;4093;53.470;9.832;2023-04-21T06:58:38;101801.34;;;17.99;56.81
8101;BME280;4093;53.470;9.832;2023-04-21T07:01:06;101803.31;;;16.66;57.95
8101;BME280;4093;53.470;9.832;2023-04-21T07:03:34;101803.72;;;18.07;56.51
8101;BME280;4093;53.470;9.832;2023-04-21T07:06:04;101800.59;;;17.03;58.56
8101;BME280;4093;53.470;9.832;2023-04-21T07:08:32;101793.78;;;17.29;58.10
8101;BME280;4093;53.470;9.832;2023-04-21T07:11:00;101792.66;;;16.75;58.53
8101;BME280;4093;53.470;9.832;2023-04-21T07:13:29;101791.75;;;17.40;57.60
8101;BME280;4093;53.470;9.832;2023-04-21T07:15:57;101782.69;;;17.82;56.46
8101;BME280;4093;53.470;9.832;2023-04-21T07:18:25;101787.03;;;16.89;58.41
8101;BME280;4093;53.470;9.832;2023-04-21T07:20:54;101790.59;;;17.19;58.12
8101;BME280;4093;53.470;9.832;2023-04-21T07:23:23;101789.06;;;17.71;57.54
8101;BME280;4093;53.470;9.832;2023-04-21T07:25:51;101786.97;;;17.84;55.90
8101;BME280;4093;53.470;9.832;2023-04-21T07:28:18;101786.06;;;18.40;54.67
8101;BME280;4093;53.470;9.832;2023-04-21T07:30:46;101784.75;;;17.98;55.85
8101;BME280;4093;53.470;9.832;2023-04-21T07:33:14;101778.28;;;18.10;56.41
8101;BME280;4093;53.470;9.832;2023-04-21T07:35:42;101744.00;;;18.94;53.38
8101;BME280;4093;53.470;9.832;2023-04-21T07:38:10;101786.50;;;19.28;53.60
8101;BME280;4093;53.470;9.832;2023-04-21T07:40:39;101778.25;;;17.54;56.60
8101;BME280;4093;53.470;9.832;2023-04-21T07:43:07;101783.25;;;18.46;55.08
8101;BME280;4093;53.470;9.832;2023-04-21T07:45:34;101781.31;;;18.78;54.01
8101;BME280;4093;53.470;9.832;2023-04-21T07:48:02;101784.53;;;19.09;54.38
8101;BME280;4093;53.470;9.832;2023-04-21T07:50:31;101776.84;;;18.28;53.95
8101;BME280;4093;53.470;9.832;2023-04-21T07:53:01;101780.44;;;19.73;52.17
8101;BME280;4093;53.470;9.832;2023-04-21T07:55:28;101763.34;;;18.65;53.67
8101;BME280;4093;53.470;9.832;2023-04-21T07:57:58;101774.66;;;18.92;54.10
8101;BME280;4093;53.470;9.832;2023-04-21T08:00:25;101766.94;;;19.13;52.95
8101;BME280;4093;53.470;9.832;2023-04-21T08:02:53;101772.91;;;18.41;55.43
8101;BME280;4093;53.470;9.832;2023-04-21T08:05:22;101768.06;;;20.41;50.26
8101;BME280;4093;53.470;9.832;2023-04-21T08:07:52;101759.09;;;18.88;53.09
8101;BME280;4093;53.470;9.832;2023-04-21T08:10:20;101760.13;;;19.07;52.38
8101;BME280;4093;53.470;9.832;2023-04-21T08:12:48;101768.72;;;19.58;52.99
8101;BME280;4093;53.470;9.832;2023-04-21T08:15:17;101766.59;;;20.76;50.25
8101;BME280;4093;53.470;9.832;2023-04-21T08:17:45;101771.03;;;19.89;51.75
8101;BME280;4093;53.470;9.832;2023-04-21T08:20:13;101753.69;;;20.07;50.15
8101;BME280;4093;53.470;9.832;2023-04-21T08:22:40;101772.31;;;18.85;53.03
8101;BME280;4093;53.470;9.832;2023-04-21T08:25:09;101767.59;;;17.90;56.00
8101;BME280;4093;53.470;9.832;2023-04-21T08:27:37;101770.81;;;18.78;53.93
8101;BME280;4093;53.470;9.832;2023-04-21T08:30:06;101763.53;;;19.80;52.54
8101;BME280;4093;53.470;9.832;2023-04-21T08:32:35;101765.13;;;19.60;51.44
8101;BME280;4093;53.470;9.832;2023-04-21T08:35:04;101759.50;;;20.15;52.72
8101;BME280;4093;53.470;9.832;2023-04-21T08:37:31;101767.56;;;18.69;54.07
8101;BME280;4093;53.470;9.832;2023-04-21T08:39:59;101745.94;;;19.36;53.13
8101;BME280;4093;53.470;9.832;2023-04-21T08:42:27;101761.22;;;19.25;52.57
8101;BME280;4093;53.470;9.832;2023-04-21T08:44:54;101757.19;;;21.85;49.62
8101;BME280;4093;53.470;9.832;2023-04-21T08:47:23;101751.56;;;21.17;48.93
8101;BME280;4093;53.470;9.832;2023-04-21T08:49:52;101746.47;;;21.14;49.75
8101;BME280;4093;53.470;9.832;2023-04-21T08:52:20;101746.91;;;23.18;44.87
8101;BME280;4093;53.470;9.832;2023-04-21T08:54:48;101754.50;;;20.72;50.47
8101;BME280;4093;53.470;9.832;2023-04-21T08:57:18;101748.91;;;20.59;50.76
8101;BME280;4093;53.470;9.832;2023-04-21T08:59:46;101749.59;;;20.22;51.31
8101;BME280;4093;53.470;9.832;2023-04-21T09:02:14;101749.88;;;21.16;49.60
8101;BME280;4093;53.470;9.832;2023-04-21T09:04:44;101762.63;;;22.53;47.57
8101;BME280;4093;53.470;9.832;2023-04-21T09:07:30;101749.06;;;21.90;47.18
8101;BME280;4093;53.470;9.832;2023-04-21T09:09:58;101735.06;;;20.33;49.83
8101;BME280;4093;53.470;9.832;2023-04-21T09:12:28;101749.28;;;20.91;48.85
8101;BME280;4093;53.470;9.832;2023-04-21T09:14:56;101775.91;;;19.31;50.98
8101;BME280;4093;53.470;9.832;2023-04-21T09:17:27;101765.78;;;19.67;50.09
8101;BME280;4093;53.470;9.832;2023-04-21T09:20:11;101761.78;;;19.57;51.47
8101;BME280;4093;53.470;9.832;2023-04-21T09:22:41;101765.22;;;19.35;50.94
8101;BME280;4093;53.470;9.832;2023-04-21T09:25:09;101759.34;;;18.55;53.80
8101;BME280;4093;53.470;9.832;2023-04-21T09:27:37;101766.28;;;18.56;53.85
8101;BME280;4093;53.470;9.832;2023-04-21T09:30:06;101760.13;;;18.06;54.89
8101;BME280;4093;53.470;9.832;2023-04-21T09:32:35;101766.84;;;18.66;53.21
8101;BME280;4093;53.470;9.832;2023-04-21T09:35:04;101761.78;;;19.57;53.19
8101;BME280;4093;53.470;9.832;2023-04-21T09:37:32;101764.25;;;19.38;53.96
8101;BME280;4093;53.470;9.832;2023-04-21T09:40:03;101752.38;;;18.54;54.53
8101;BME280;4093;53.470;9.832;2023-04-21T09:42:32;101754.78;;;18.87;54.72
8101;BME280;4093;53.470;9.832;2023-04-21T09:45:07;101761.75;;;19.35;53.40
8101;BME280;4093;53.470;9.832;2023-04-21T09:47:58;101749.44;;;18.90;53.23
8101;BME280;4093;53.470;9.832;2023-04-21T09:50:28;101748.56;;;19.36;53.72
8101;BME280;4093;53.470;9.832;2023-04-21T09:53:02;101757.59;;;19.06;55.34
8101;BME280;4093;53.470;9.832;2023-04-21T09:55:34;101739.44;;;19.47;54.21
8101;BME280;4093;53.470;9.832;2023-04-21T09:58:04;101747.00;;;19.54;53.18
8101;BME280;4093;53.470;9.832;2023-04-21T10:00:36;101745.19;;;19.33;53.86
8101;BME280;4093;53.470;9.832;2023-04-21T10:03:06;101745.63;;;19.22;51.84
8101;BME280;4093;53.470;9.832;2023-04-21T10:05:37;101740.66;;;19.60;51.61
8101;BME280;4093;53.470;9.832;2023-04-21T10:08:09;101728.81;;;19.28;51.70
8101;BME280;4093;53.470;9.832;2023-04-21T10:10:39;101739.00;;;19.57;50.23
8101;BME280;4093;53.470;9.832;2023-04-21T10:13:12;101731.97;;;18.89;52.04
8101;BME280;4093;53.470;9.832;2023-04-21T10:15:41;101722.00;;;19.68;50.71
8101;BME280;4093;53.470;9.832;2023-04-21T10:18:14;101707.97;;;19.23;50.46
8101;BME280;4093;53.470;9.832;2023-04-21T10:20:53;101724.97;;;19.58;49.63
8101;BME280;4093;53.470;9.832;2023-04-21T10:23:28;101688.09;;;19.61;50.88
8101;BME280;4093;53.470;9.832;2023-04-21T10:26:10;101697.25;;;19.29;51.22
8101;BME280;4093;53.470;9.832;2023-04-21T10:28:43;101704.28;;;19.29;51.40
8101;BME280;4093;53.470;9.832;2023-04-21T10:31:28;101709.34;;;19.79;50.17
8101;BME280;4093;53.470;9.832;2023-04-21T10:34:16;101669.69;;;18.95;50.30
8101;BME280;4093;53.470;9.832;2023-04-21T10:36:50;101698.47;;;20.08;50.07
8101;BME280;4093;53.470;9.832;2023-04-21T10:39:34;101689.75;;;19.20;51.28
8101;BME280;4093;53.470;9.832;2023-04-21T10:42:21;101689.44;;;19.73;49.74
8101;BME280;4093;53.470;9.832;2023-04-21T10:44:51;101690.16;;;19.77;50.59
8101;BME280;4093;53.470;9.832;2023-04-21T10:47:26;101682.63;;;20.71;49.80
8101;BME280;4093;53.470;9.832;2023-04-21T10:49:55;101672.34;;;20.67;48.05
8101;BME280;4093;53.470;9.832;2023-04-21T10:52:30;101666.97;;;21.45;47.93
8101;BME280;4093;53.470;9.832;2023-04-21T10:55:07;101659.06;;;20.70;48.73
8101;BME280;4093;53.470;9.832;2023-04-21T10:57:40;101667.81;;;20.70;49.67
8101;BME280;4093;53.470;9.832;2023-04-21T11:00:10;101666.41;;;20.82;47.66
8101;BME280;4093;53.470;9.832;2023-04-21T11:02:39;101643.03;;;20.76;46.74
8101;BME280;4093;53.470;9.832;2023-04-21T11:05:10;101679.81;;;20.15;47.78
8101;BME280;4093;53.470;9.832;2023-04-21T11:07:38;101679.81;;;20.15;47.29
8101;BME280;4093;53.470;9.832;2023-04-21T11:10:07;101646.50;;;19.96;47.71
8101;BME280;4093;53.470;9.832;2023-04-21T11:12:39;101660.78;;;20.30;47.87
8101;BME280;4093;53.470;9.832;2023-04-21T11:15:08;101647.28;;;20.60;47.10
8101;BME280;4093;53.470;9.832;2023-04-21T11:17:37;101633.97;;;21.38;47.28
8101;BME280;4093;53.470;9.832;2023-04-21T11:20:08;101636.69;;;21.18;46.39
8101;BME280;4093;53.470;9.832;2023-04-21T11:22:36;101634.16;;;20.78;46.75
8101;BME280;4093;53.470;9.832;2023-04-21T11:25:05;101622.22;;;20.90;46.59
8101;BME280;4093;53.470;9.832;2023-04-21T11:27:52;101629.22;;;21.09;45.47
8101;BME280;4093;53.470;9.832;2023-04-21T11:30:20;101621.56;;;20.85;45.05
8101;BME280;4093;53.470;9.832;2023-04-21T11:32:52;101622.66;;;21.17;44.55
8101;BME280;4093;53.470;9.832;2023-04-21T11:35:21;101624.19;;;20.85;45.69
8101;BME280;4093;53.470;9.832;2023-04-21T11:37:50;101621.28;;;21.27;45.04
8101;BME280;4093;53.470;9.832;2023-04-21T11:40:18;101612.41;;;21.49;45.14
8101;BME280;4093;53.470;9.832;2023-04-21T11:42:47;101606.75;;;21.20;45.08
8101;BME280;4093;53.470;9.832;2023-04-21T11:45:16;101591.06;;;21.00;45.77
8101;BME280;4093;53.470;9.832;2023-04-21T11:47:47;101609.16;;;21.25;45.47
8101;BME280;4093;53.470;9.832;2023-04-21T11:50:29;101599.84;;;21.18;46.13
8101;BME280;4093;53.470;9.832;2023-04-21T11:52:57;101586.53;;;20.66;46.33
8101;BME280;4093;53.470;9.832;2023-04-21T11:55:27;101598.94;;;21.38;45.75
8101;BME280;4093;53.470;9.832;2023-04-21T11:57:56;101580.66;;;20.40;47.17
8101;BME280;4093;53.470;9.832;2023-04-21T12:00:28;101588.03;;;20.90;46.91
8101;BME280;4093;53.470;9.832;2023-04-21T12:02:57;101588.34;;;21.01;45.20
8101;BME280;4093;53.470;9.832;2023-04-21T12:05:33;101575.22;;;21.01;44.84
8101;BME280;4093;53.470;9.832;2023-04-21T12:08:01;101580.44;;;21.91;43.63
8101;BME280;4093;53.470;9.832;2023-04-21T12:10:30;101568.97;;;21.58;44.14
8101;BME280;4093;53.470;9.832;2023-04-21T12:13:00;101581.81;;;21.10;45.05
8101;BME280;4093;53.470;9.832;2023-04-21T12:15:29;101560.06;;;21.07;44.75
8101;BME280;4093;53.470;9.832;2023-04-21T12:17:57;101562.94;;;21.56;44.99
8101;BME280;4093;53.470;9.832;2023-04-21T12:20:28;101565.03;;;21.66;44.41
8101;BME280;4093;53.470;9.832;2023-04-21T12:22:57;101561.06;;;21.58;44.04
8101;BME280;4093;53.470;9.832;2023-04-21T12:25:26;101552.75;;;22.17;42.86
8101;BME280;4093;53.470;9.832;2023-04-21T12:27:57;101541.78;;;21.40;43.68
8101;BME280;4093;53.470;9.832;2023-04-21T12:30:26;101539.25;;;21.38;42.88
8101;BME280;4093;53.470;9.832;2023-04-21T12:32:54;101544.31;;;21.24;43.20
8101;BME280;4093;53.470;9.832;2023-04-21T12:35:22;101536.09;;;21.30;42.69
8101;BME280;4093;53.470;9.832;2023-04-21T12:37:50;101543.09;;;22.01;41.89
8101;BME280;4093;53.470;9.832;2023-04-21T12:40:18;101534.72;;;21.92;41.65
8101;BME280;4093;53.470;9.832;2023-04-21T12:42:45;101550.25;;;22.14;41.22
8101;BME280;4093;53.470;9.832;2023-04-21T12:45:14;101537.75;;;21.33;42.07
8101;BME280;4093;53.470;9.832;2023-04-21T12:47:43;101530.19;;;22.12;41.82
8101;BME280;4093;53.470;9.832;2023-04-21T12:50:12;101528.75;;;21.89;42.37
8101;BME280;4093;53.470;9.832;2023-04-21T12:52:40;101520.97;;;21.53;42.24
8101;BME280;4093;53.470;9.832;2023-04-21T12:55:08;101540.38;;;22.35;42.49
8101;BME280;4093;53.470;9.832;2023-04-21T12:57:36;101508.06;;;21.99;41.45
8101;BME280;4093;53.470;9.832;2023-04-21T13:00:05;101504.97;;;21.57;41.99
8101;BME280;4093;53.470;9.832;2023-04-21T13:02:33;101521.44;;;22.11;42.10
8101;BME280;4093;53.470;9.832;2023-04-21T13:05:05;101507.22;;;21.81;41.78
8101;BME280;4093;53.470;9.832;2023-04-21T13:07:35;101518.56;;;21.83;42.83
8101;BME280;4093;53.470;9.832;2023-04-21T13:10:04;101509.03;;;21.80;42.19
8101;BME280;4093;53.470;9.832;2023-04-21T13:12:32;101520.41;;;22.14;41.23
8101;BME280;4093;53.470;9.832;2023-04-21T13:15:01;101510.06;;;21.43;41.66
8101;BME280;4093;53.470;9.832;2023-04-21T13:17:29;101515.88;;;21.67;41.95
8101;BME280;4093;53.470;9.832;2023-04-21T13:19:58;101510.09;;;22.27;41.38
8101;BME280;4093;53.470;9.832;2023-04-21T13:22:27;101503.56;;;22.50;41.14
8101;BME280;4093;53.470;9.832;2023-04-21T13:24:54;101500.06;;;22.33;42.20